createdAt,value
2018-12-15T00:02:54.515Z,21.47
2018-12-15T00:05:57.852Z,22.13
2018-12-15T00:09:01.151Z,17.30
2018-12-15T00:12:04.405Z,15.63
2018-12-15T00:15:08.028Z,17.57
2018-12-15T00:18:11.260Z,20.03
2018-12-15T00:21:14.522Z,20.93
2018-12-15T00:24:17.942Z,21.20
2018-12-15T00:27:21.243Z,21.73
2018-12-15T00:30:24.457Z,23.93
2018-12-15T00:33:27.834Z,20.80
2018-12-15T00:36:31.065Z,21.23
2018-12-15T00:39:34.323Z,18.77
2018-12-15T00:42:37.537Z,22.00
2018-12-15T00:45:40.788Z,18.33
2018-12-15T00:48:44.019Z,20.10
2018-12-15T00:51:47.251Z,21.00
2018-12-15T00:54:50.484Z,20.27
2018-12-15T00:57:53.707Z,19.83
2018-12-15T01:00:56.953Z,20.20
2018-12-15T01:04:00.249Z,20.17
2018-12-15T01:07:03.582Z,19.40
2018-12-15T01:10:06.892Z,22.67
2018-12-15T01:13:10.185Z,20.90
2018-12-15T01:16:13.408Z,22.17
2018-12-15T01:19:16.678Z,19.60
2018-12-15T01:22:19.980Z,22.23
2018-12-15T01:25:23.232Z,23.07
2018-12-15T01:28:26.453Z,20.57
2018-12-15T01:31:29.768Z,22.17
2018-12-15T01:34:32.997Z,20.03
2018-12-15T01:37:36.260Z,20.73
2018-12-15T01:40:39.521Z,21.27
2018-12-15T01:43:43.061Z,20.67
2018-12-15T01:46:46.388Z,18.07
2018-12-15T01:49:49.650Z,19.83
2018-12-15T01:52:52.929Z,18.77
2018-12-15T01:55:56.177Z,20.83
2018-12-15T01:58:59.550Z,18.23
2018-12-15T02:02:02.940Z,20.40
2018-12-15T02:05:06.249Z,22.77
2018-12-15T02:08:09.471Z,19.67
2018-12-15T02:11:12.837Z,19.73
2018-12-15T02:14:16.097Z,18.40
2018-12-15T02:17:19.428Z,21.87
2018-12-15T02:20:22.659Z,24.53
2018-12-15T02:23:25.924Z,20.70
2018-12-15T02:26:29.140Z,21.13
2018-12-15T02:29:32.445Z,20.23
2018-12-15T02:32:35.695Z,21.27
2018-12-15T02:35:38.956Z,20.10
2018-12-15T02:38:42.165Z,19.50
2018-12-15T02:41:47.370Z,20.30
2018-12-15T02:44:50.639Z,19.50
2018-12-15T02:47:53.994Z,18.90
2018-12-15T02:50:57.235Z,20.27
2018-12-15T02:54:00.487Z,20.03
2018-12-15T02:57:03.823Z,19.37
2018-12-15T03:00:07.326Z,17.63
2018-12-15T03:03:10.533Z,19.50
2018-12-15T03:06:13.760Z,18.53
2018-12-15T03:09:16.996Z,20.47
2018-12-15T03:12:20.263Z,17.87
2018-12-15T03:15:23.530Z,18.83
2018-12-15T03:18:26.802Z,20.83
2018-12-15T03:21:30.012Z,20.40
2018-12-15T03:24:33.246Z,19.10
2018-12-15T03:27:36.578Z,21.43
2018-12-15T03:30:39.931Z,22.73
2018-12-15T03:33:43.287Z,19.60
2018-12-15T03:36:46.499Z,20.77
2018-12-15T03:39:49.853Z,19.23
2018-12-15T03:42:53.056Z,26.23
2018-12-15T03:45:56.375Z,20.40
2018-12-15T03:48:59.577Z,22.77
2018-12-15T03:52:02.809Z,21.20
2018-12-15T03:55:06.079Z,20.70
2018-12-15T03:58:09.359Z,23.17
2018-12-15T04:01:12.725Z,24.63
2018-12-15T04:04:16.030Z,22.20
2018-12-15T04:07:19.352Z,24.77
2018-12-15T04:10:22.584Z,22.27
2018-12-15T04:13:25.849Z,23.77
2018-12-15T04:16:29.234Z,21.63
2018-12-15T04:19:32.545Z,21.30
2018-12-15T04:22:35.815Z,23.43
2018-12-15T04:25:39.022Z,22.60
2018-12-15T04:28:42.371Z,24.53
2018-12-15T04:31:45.625Z,20.17
2018-12-15T04:34:48.850Z,22.93
2018-12-15T04:37:52.173Z,22.03
2018-12-15T04:40:55.518Z,21.30
2018-12-15T04:43:59.074Z,24.50
2018-12-15T04:47:02.837Z,21.80
2018-12-15T04:50:06.108Z,22.97
2018-12-15T04:53:09.341Z,24.20
2018-12-15T04:56:12.564Z,23.87
2018-12-15T04:59:15.813Z,22.20
2018-12-15T05:02:19.072Z,23.37
2018-12-15T05:05:22.301Z,23.60
2018-12-15T05:08:25.520Z,25.37
2018-12-15T05:11:28.795Z,22.00
2018-12-15T05:14:32.094Z,24.67
2018-12-15T05:17:35.341Z,23.43
2018-12-15T05:20:38.549Z,24.87
2018-12-15T05:23:41.773Z,23.17
2018-12-15T05:26:45.008Z,23.30
2018-12-15T05:29:48.277Z,23.27
2018-12-15T05:32:51.588Z,23.87
2018-12-15T05:35:54.838Z,23.27
2018-12-15T05:38:58.052Z,25.97
2018-12-15T05:42:01.339Z,23.20
2018-12-15T05:45:05.925Z,21.33
2018-12-15T05:48:09.156Z,24.50
2018-12-15T05:51:12.385Z,24.43
2018-12-15T05:54:15.608Z,25.97
2018-12-15T05:57:18.977Z,23.53
2018-12-15T06:00:22.280Z,30.43
2018-12-15T06:03:25.515Z,25.73
2018-12-15T06:06:28.862Z,23.77
2018-12-15T06:09:32.071Z,25.10
2018-12-15T06:12:35.304Z,25.90
2018-12-15T06:15:38.672Z,23.33
2018-12-15T06:18:41.892Z,24.60
2018-12-15T06:21:45.141Z,23.23
2018-12-15T06:24:48.402Z,24.13
2018-12-15T06:27:51.721Z,25.10
2018-12-15T06:30:55.037Z,24.23
2018-12-15T06:33:58.281Z,22.63
2018-12-15T06:37:01.521Z,29.20
2018-12-15T06:40:06.768Z,24.93
2018-12-15T06:43:10.067Z,23.63
2018-12-15T06:46:13.363Z,26.57
2018-12-15T06:49:16.565Z,23.63
2018-12-15T06:52:19.805Z,30.13
2018-12-15T06:55:23.049Z,24.50
2018-12-15T06:58:26.261Z,25.80
2018-12-15T07:01:29.494Z,26.43
2018-12-15T07:04:32.720Z,25.27
2018-12-15T07:07:35.999Z,26.17
2018-12-15T07:10:39.309Z,25.13
2018-12-15T07:13:42.537Z,26.37
2018-12-15T07:16:45.780Z,26.40
2018-12-15T07:19:49.017Z,25.63
2018-12-15T07:22:52.233Z,28.30
2018-12-15T07:25:55.508Z,29.33
2018-12-15T07:28:58.722Z,30.37
2018-12-15T07:32:01.983Z,30.73
2018-12-15T07:35:05.262Z,28.97
2018-12-15T07:38:08.584Z,26.70
2018-12-15T07:41:11.929Z,27.60
2018-12-15T07:44:15.194Z,26.50
2018-12-15T07:47:18.589Z,29.73
2018-12-15T07:50:21.800Z,31.70
2018-12-15T07:53:25.080Z,25.93
2018-12-15T07:56:28.327Z,28.50
2018-12-15T07:59:31.583Z,27.07
2018-12-15T08:02:34.827Z,31.37
2018-12-15T08:05:38.060Z,31.10
2018-12-15T08:08:41.299Z,32.23
2018-12-15T08:11:49.984Z,25.97
2018-12-15T08:14:53.185Z,31.27
2018-12-15T08:17:56.485Z,28.40
2018-12-15T08:20:59.708Z,30.07
2018-12-15T08:24:02.969Z,29.17
2018-12-15T08:27:06.228Z,30.93
2018-12-15T08:30:10.861Z,27.50
2018-12-15T08:33:14.190Z,26.03
2018-12-15T08:36:17.487Z,31.27
2018-12-15T08:39:21.432Z,28.03
2018-12-15T08:42:24.668Z,25.07
2018-12-15T08:45:27.916Z,27.37
2018-12-15T08:48:31.153Z,28.13
2018-12-15T08:51:34.689Z,28.17
2018-12-15T08:54:37.956Z,28.40
2018-12-15T08:57:41.289Z,28.07
2018-12-15T09:00:44.579Z,27.20
2018-12-15T09:03:47.797Z,27.20
2018-12-15T09:06:51.174Z,31.70
2018-12-15T09:09:54.380Z,29.97
2018-12-15T09:12:57.705Z,27.93
2018-12-15T09:16:01.065Z,29.30
2018-12-15T09:19:04.331Z,27.37
2018-12-15T09:22:11.390Z,24.73
2018-12-15T09:25:12.853Z,26.27
2018-12-15T09:28:16.088Z,26.13
2018-12-15T09:31:19.399Z,23.67
2018-12-15T09:34:22.693Z,25.50
2018-12-15T09:37:25.905Z,25.53
2018-12-15T09:40:29.179Z,24.00
2018-12-15T09:43:32.466Z,27.10
2018-12-15T09:46:35.778Z,23.87
2018-12-15T09:49:39.074Z,27.17
2018-12-15T09:52:42.311Z,25.80
2018-12-15T09:55:45.567Z,26.73
2018-12-15T09:58:48.824Z,26.33
2018-12-15T10:01:52.057Z,26.07
2018-12-15T10:04:55.355Z,25.27
2018-12-15T10:07:58.652Z,22.50
2018-12-15T10:11:01.913Z,28.63
2018-12-15T10:14:05.248Z,29.27
2018-12-15T10:17:09.007Z,31.90
2018-12-15T10:20:12.424Z,23.13
2018-12-15T10:23:15.751Z,22.57
2018-12-15T10:26:19.052Z,25.83
2018-12-15T10:33:00.481Z,26.37
2018-12-15T10:36:03.763Z,25.43
2018-12-15T10:39:08.434Z,34.33
2018-12-15T10:42:11.682Z,23.97
2018-12-15T10:45:14.953Z,26.80
2018-12-15T10:48:18.276Z,23.43
2018-12-15T10:51:21.505Z,25.03
2018-12-15T10:54:24.756Z,24.73
2018-12-15T10:57:28.048Z,22.03
2018-12-15T11:00:36.736Z,21.33
2018-12-15T11:03:39.960Z,23.43
2018-12-15T11:06:43.209Z,26.13
2018-12-15T11:09:46.436Z,21.60
2018-12-15T11:12:49.736Z,26.20
2018-12-15T11:15:52.974Z,24.57
2018-12-15T11:18:56.298Z,24.63
2018-12-15T11:21:59.532Z,23.40
2018-12-15T11:25:02.781Z,25.83
2018-12-15T11:28:06.024Z,22.40
2018-12-15T11:31:09.289Z,27.27
2018-12-15T11:34:12.527Z,22.93
2018-12-15T11:37:15.776Z,27.37
2018-12-15T11:40:19.054Z,26.00
2018-12-15T11:43:22.297Z,21.40
2018-12-15T11:46:25.548Z,23.70
2018-12-15T11:49:28.865Z,31.77
2018-12-15T11:52:32.089Z,24.57
2018-12-15T11:55:35.348Z,24.83
2018-12-15T11:58:38.604Z,26.83
2018-12-15T12:01:41.836Z,21.50
2018-12-15T12:04:45.065Z,23.87
2018-12-15T12:07:48.319Z,23.87
2018-12-15T12:10:51.553Z,26.27
2018-12-15T12:14:00.332Z,21.13
2018-12-15T12:16:59.998Z,22.43
2018-12-15T12:20:06.306Z,22.50
2018-12-15T12:23:09.524Z,24.43
2018-12-15T12:26:12.786Z,25.53
2018-12-15T12:29:16.001Z,21.87
2018-12-15T12:32:19.223Z,24.17
2018-12-15T12:35:22.492Z,23.20
2018-12-15T12:38:25.720Z,24.50
2018-12-15T12:41:28.960Z,24.90
2018-12-15T12:44:32.272Z,20.47
2018-12-15T12:47:35.499Z,28.73
2018-12-15T12:50:38.753Z,23.33
2018-12-15T12:53:42.024Z,25.20
2018-12-15T12:56:45.269Z,25.40
2018-12-15T12:59:48.500Z,23.37
2018-12-15T13:02:51.724Z,27.27
2018-12-15T13:05:54.972Z,23.43
2018-12-15T13:08:58.200Z,25.40
2018-12-15T13:12:01.432Z,27.20
2018-12-15T13:15:05.676Z,24.63
2018-12-15T13:18:09.013Z,23.30
2018-12-15T13:21:12.350Z,24.10
2018-12-15T13:24:15.943Z,26.63
2018-12-15T13:27:19.204Z,24.17
2018-12-15T13:30:23.000Z,22.07
2018-12-15T13:33:33.521Z,23.43
2018-12-15T13:36:36.804Z,24.60
2018-12-15T13:39:40.096Z,27.33
2018-12-15T13:42:43.376Z,24.40
2018-12-15T13:45:46.703Z,27.90
2018-12-15T13:48:49.972Z,24.80
2018-12-15T13:51:53.219Z,26.33
2018-12-15T13:54:56.456Z,21.97
2018-12-15T13:57:59.673Z,22.47
2018-12-15T14:01:02.901Z,22.87
2018-12-15T14:04:06.120Z,22.83
2018-12-15T14:07:09.368Z,25.17
2018-12-15T14:10:12.884Z,25.17
2018-12-15T14:13:16.116Z,26.47
2018-12-15T14:16:19.485Z,25.50
2018-12-15T14:19:22.687Z,25.27
2018-12-15T14:22:25.972Z,23.33
2018-12-15T14:25:29.184Z,27.43
2018-12-15T14:28:32.523Z,23.80
2018-12-15T14:31:35.805Z,26.13
2018-12-15T14:34:39.042Z,28.50
2018-12-15T14:37:42.268Z,26.83
2018-12-15T14:40:45.521Z,30.30
2018-12-15T14:43:48.749Z,26.40
2018-12-15T14:46:52.042Z,27.53
2018-12-15T14:49:55.255Z,27.37
2018-12-15T14:52:58.535Z,25.00
2018-12-15T14:56:01.744Z,29.60
2018-12-15T14:59:04.965Z,29.70
2018-12-15T15:02:08.285Z,28.43
2018-12-15T15:05:11.537Z,26.40
2018-12-15T15:08:14.813Z,24.10
2018-12-15T15:11:18.052Z,25.97
2018-12-15T15:14:21.280Z,23.53
2018-12-15T15:17:24.605Z,27.23
2018-12-15T15:20:29.875Z,29.10
2018-12-15T15:23:33.045Z,30.60
2018-12-15T15:26:36.368Z,28.80
2018-12-15T15:29:39.600Z,27.53
2018-12-15T15:32:42.930Z,28.07
2018-12-15T15:35:46.150Z,27.33
2018-12-15T15:38:49.424Z,31.43
2018-12-15T15:41:52.782Z,30.93
2018-12-15T15:44:56.021Z,31.53
2018-12-15T15:47:59.416Z,30.20
2018-12-15T15:51:02.626Z,29.73
2018-12-15T15:54:05.999Z,30.33
2018-12-15T15:57:09.235Z,33.93
2018-12-15T16:00:12.593Z,30.57
2018-12-15T16:03:15.825Z,31.30
2018-12-15T16:06:19.102Z,32.57
2018-12-15T16:09:22.364Z,34.03
2018-12-15T16:12:25.701Z,28.83
2018-12-15T16:15:29.092Z,34.27
2018-12-15T16:18:32.305Z,29.73
2018-12-15T16:21:35.536Z,28.73
2018-12-15T16:24:38.833Z,29.97
2018-12-15T16:27:42.109Z,32.17
2018-12-15T16:30:45.357Z,28.90
2018-12-15T16:33:48.633Z,31.43
2018-12-15T16:36:51.965Z,30.43
2018-12-15T16:39:55.193Z,25.97
2018-12-15T16:42:58.457Z,25.93
2018-12-15T16:46:01.694Z,27.57
2018-12-15T16:49:06.103Z,30.80
2018-12-15T16:52:09.496Z,27.37
2018-12-15T16:55:13.118Z,30.40
2018-12-15T16:58:16.479Z,27.23
2018-12-15T17:01:19.743Z,26.10
2018-12-15T17:04:23.051Z,27.03
2018-12-15T17:07:26.281Z,25.83
2018-12-15T17:10:29.564Z,26.87
2018-12-15T17:13:32.810Z,28.37
2018-12-15T17:16:36.057Z,27.20
2018-12-15T17:19:39.264Z,24.73
2018-12-15T17:22:42.548Z,27.43
2018-12-15T17:25:45.808Z,26.40
2018-12-15T17:28:49.146Z,24.33
2018-12-15T17:31:52.360Z,27.30
2018-12-15T17:34:55.679Z,25.60
2018-12-15T17:37:58.952Z,26.40
2018-12-15T17:41:02.231Z,25.40
2018-12-15T17:44:05.526Z,27.47
2018-12-15T17:47:08.762Z,27.37
2018-12-15T17:50:12.060Z,27.63
2018-12-15T17:53:15.338Z,30.43
2018-12-15T17:56:18.575Z,25.57
2018-12-15T17:59:21.797Z,28.20
2018-12-15T18:02:25.104Z,25.27
2018-12-15T18:05:28.337Z,24.97
2018-12-15T18:08:31.588Z,26.10
2018-12-15T18:11:34.814Z,28.83
2018-12-15T18:14:38.087Z,24.70
2018-12-15T18:17:41.305Z,28.60
2018-12-15T18:20:44.589Z,25.50
2018-12-15T18:23:47.840Z,28.40
2018-12-15T18:26:51.112Z,27.33
2018-12-15T18:29:54.342Z,25.27
2018-12-15T18:32:57.577Z,31.03
2018-12-15T18:36:00.824Z,27.67
2018-12-15T18:39:06.801Z,27.67
2018-12-15T18:42:10.939Z,24.80
2018-12-15T18:45:14.424Z,25.20
2018-12-15T18:48:17.671Z,24.67
2018-12-15T18:51:20.933Z,25.10
2018-12-15T18:54:24.200Z,24.57
2018-12-15T18:57:27.472Z,23.97
2018-12-15T19:00:30.700Z,27.30
2018-12-15T19:03:33.934Z,23.27
2018-12-15T19:06:37.225Z,24.07
2018-12-15T19:09:40.452Z,22.70
2018-12-15T19:12:43.702Z,23.03
2018-12-15T19:15:46.932Z,23.23
2018-12-15T19:18:50.195Z,24.47
2018-12-15T19:21:53.427Z,22.40
2018-12-15T19:24:56.776Z,25.70
2018-12-15T19:28:00.005Z,22.87
2018-12-15T19:31:03.282Z,24.93
2018-12-15T19:34:06.492Z,22.33
2018-12-15T19:37:09.750Z,22.20
2018-12-15T19:40:13.035Z,22.43
2018-12-15T19:43:16.279Z,21.67
2018-12-15T19:46:19.525Z,26.80
2018-12-15T19:49:22.759Z,24.27
2018-12-15T19:52:26.087Z,23.57
2018-12-15T19:55:29.340Z,21.67
2018-12-15T19:58:32.578Z,22.00
2018-12-15T20:01:35.825Z,23.13
2018-12-15T20:04:39.062Z,21.77
2018-12-15T20:07:42.304Z,23.77
2018-12-15T20:10:45.583Z,23.53
2018-12-15T20:13:48.837Z,22.80
2018-12-15T20:16:52.112Z,22.10
2018-12-15T20:19:55.388Z,21.27
2018-12-15T20:22:58.665Z,22.73
2018-12-15T20:26:01.892Z,26.20
2018-12-15T20:29:05.212Z,24.20
2018-12-15T20:32:08.456Z,23.60
2018-12-15T20:35:11.701Z,23.83
2018-12-15T20:38:14.933Z,23.37
2018-12-15T20:41:19.284Z,21.57
2018-12-15T20:44:22.820Z,24.33
2018-12-15T20:47:27.937Z,26.27
2018-12-15T20:50:31.319Z,27.57
2018-12-15T20:53:34.577Z,23.57
2018-12-15T20:56:37.835Z,28.43
2018-12-15T20:59:41.168Z,27.33
2018-12-15T21:02:44.517Z,23.20
2018-12-15T21:05:48.156Z,25.23
2018-12-15T21:08:51.717Z,23.87
2018-12-15T21:11:55.263Z,29.93
2018-12-15T21:15:00.817Z,26.90
2018-12-15T21:18:04.273Z,26.13
2018-12-15T21:21:07.755Z,27.63
2018-12-15T21:24:11.179Z,27.83
2018-12-15T21:27:14.414Z,28.33
2018-12-15T21:30:17.751Z,26.70
2018-12-15T21:33:21.219Z,29.77
2018-12-15T21:36:24.631Z,28.80
2018-12-15T21:39:28.278Z,28.37
2018-12-15T21:42:31.803Z,27.93
2018-12-15T21:45:35.620Z,32.63
2018-12-15T21:48:38.975Z,27.60
2018-12-15T21:51:42.634Z,30.73
2018-12-15T21:54:45.896Z,31.43
2018-12-15T21:57:49.412Z,30.77
2018-12-15T22:00:52.817Z,28.80
2018-12-15T22:03:56.546Z,32.33
2018-12-15T22:07:00.207Z,29.27
2018-12-15T22:10:04.282Z,30.23
2018-12-15T22:13:07.552Z,33.57
2018-12-15T22:19:31.466Z,28.77
2018-12-15T22:22:35.660Z,30.87
2018-12-15T22:25:39.019Z,32.10
2018-12-15T22:28:42.459Z,29.83
2018-12-15T22:31:45.777Z,31.40
2018-12-15T22:34:49.389Z,30.57
2018-12-15T22:37:52.866Z,32.07
2018-12-15T22:40:56.513Z,30.40
2018-12-15T22:44:00.193Z,30.47
2018-12-15T22:47:03.591Z,32.47
2018-12-15T22:50:07.471Z,34.53
2018-12-15T22:53:11.151Z,33.53
2018-12-15T22:56:14.564Z,31.87
2018-12-15T22:59:17.898Z,38.03
2018-12-15T23:02:21.137Z,32.70
2018-12-15T23:05:24.409Z,33.97
2018-12-15T23:08:27.649Z,35.70
2018-12-15T23:11:30.993Z,34.67
2018-12-15T23:14:34.259Z,35.43
2018-12-15T23:17:37.516Z,37.07
2018-12-15T23:20:40.814Z,30.83
2018-12-15T23:23:44.068Z,32.40
2018-12-15T23:26:47.366Z,32.27
2018-12-15T23:29:50.588Z,31.90
2018-12-15T23:32:53.892Z,32.20
2018-12-15T23:35:57.128Z,28.47
2018-12-15T23:39:00.409Z,34.00
2018-12-15T23:42:03.751Z,32.27
2018-12-15T23:45:07.353Z,41.00
2018-12-15T23:48:10.597Z,34.13
2018-12-15T23:51:13.929Z,35.37
2018-12-15T23:54:17.164Z,35.13
2018-12-15T23:57:20.413Z,34.27
